aviador You're here:

SMJP Decoded Metar

ZANDERY in SURINAM
Report Time2018-07-21 18:00:00
UTC Time2018-07-21 18:56:22
Flight Rules vfr VFR
Wind210° at 03 kt
W.Decomp.*RWY 29: 1.4 kt HW 2.7 kt LCW
W.Rank210° ranks 23
Current wind is above 210° avg. (2.7)
Visibility9999 m
Phenomena:Light Shower Rain
Clouds:Few CB 020 Hf
Scattered 025 Hf
Expected CloudBase > 1,200 ft AGL from Temp-Dew spread
CeilingNone
Temp26°C (ISA +11)
Dew Point23°C (84% RH)
QNH1011 hPa
Density Alt1,772 ft
Elevation52 ft
Report Wrong Elevation
Raw Report
SMJP 211800Z 21003KT 9999 -SHRA FEW020CB SCT025 26/23 Q1011
NOSIG=

Extra information for SMJP:More info

Metar Taf Metar & Taf Last 4 Metars F.Rules Stats Wind Profile Meteogram Temp Stats Airport Information Weather charts Add Link Nearby VenuesMetar ALERT Operation Metar Decoded Social comments